Waterloo, Wisconsin
Current Conditions -  °F | °C
As of 9:15 AM on Thursday 18 Dec 2014 (Local Time) from KRYV Reporting Station
Overcast Overcast  
Wind Chill: 17°   Ceiling: 1800
Heat Index: 23°   Visibility: 10mi
Dew Point: 21°   Wind: 5mph
Humidity: 92%   Direction: 280°W
Pressure: 30.28"   Gusts: NA
Location:  43.18°N, 88.99°W
Report Text: KRYV 181515Z AUTO 28004KT 10SM OVC018 M05/M06 A3028 RMK AO2 T10491060
Loading
Personal Weather Stations






























Interactive Weather Map New forecast layout! Learn more

10-Day Weather Forecast

Advertisements
Track Severe Weather on mobile